Time;durP1;ratioP1;P1;durP2;ratioP2;P2;SDS_P1;SDS_P2;PMS_P1;PMS_P2;Temp;Humidity;BMP_temperature;BMP_pressure;BME280_temperature;BME280_humidity;BME280_pressure;Samples;Min_cycle;Max_cycle;Signal;HPM_P1;HPM_P2
2023/10/15 00:00:13;;;;;;;0.98;0.20;;;;;;;9.59;79.69;101911.59;4973175;28;98449;-29
2023/10/15 00:02:42;;;;;;;2.65;0.20;;;;;;;9.50;80.22;101897.47;4972988;28;100959;-28
2023/10/15 00:05:12;;;;;;;0.30;0.10;;;;;;;9.56;80.44;101908.06;4976884;28;98077;-29
2023/10/15 00:07:38;;;;;;;0.85;0.13;;;;;;;9.55;80.63;101906.28;4976897;28;96546;-28
2023/10/15 00:10:09;;;;;;;0.38;0.17;;;;;;;9.55;80.25;101905.41;4978474;28;96777;-28
2023/10/15 00:12:34;;;;;;;1.25;0.47;;;;;;;9.53;80.58;101907.28;4976265;28;99213;-28
2023/10/15 00:14:59;;;;;;;0.65;0.30;;;;;;;9.53;80.74;101904.56;4977837;28;97750;-28
2023/10/15 00:17:27;;;;;;;0.10;0.10;;;;;;;9.55;81.31;101910.81;4977227;28;97390;-28
2023/10/15 00:19:52;;;;;;;0.47;0.35;;;;;;;9.52;81.66;101919.94;4977906;28;96714;-28
2023/10/15 00:22:18;;;;;;;1.33;0.35;;;;;;;9.51;81.51;101922.69;4977584;28;98021;-28
2023/10/15 00:24:43;;;;;;;0.57;0.25;;;;;;;9.49;81.95;101917.34;4977403;28;99144;-28
2023/10/15 00:27:08;;;;;;;0.40;0.15;;;;;;;9.48;81.29;101909.28;4977582;28;96628;-28
2023/10/15 00:29:35;;;;;;;1.40;0.30;;;;;;;9.44;82.06;101913.06;4977957;28;96797;-28
2023/10/15 00:32:00;;;;;;;0.00;0.00;;;;;;;9.45;81.00;101904.03;4977319;28;99274;-28
2023/10/15 00:34:26;;;;;;;0.30;0.10;;;;;;;9.38;81.85;101910.63;4977853;28;97365;-28
2023/10/15 00:36:51;;;;;;;2.25;0.10;;;;;;;9.37;81.32;101901.63;4977689;28;96578;-28
2023/10/15 00:39:20;;;;;;;0.95;0.28;;;;;;;9.36;82.54;101895.31;4977495;28;96794;-28
2023/10/15 00:41:50;;;;;;;0.50;0.25;;;;;;;9.41;82.94;101900.53;4975221;28;100854;-28
2023/10/15 00:44:16;;;;;;;1.63;0.30;;;;;;;9.33;83.63;101892.75;4975469;28;101114;-28
2023/10/15 00:46:45;;;;;;;0.65;0.05;;;;;;;9.37;83.89;101896.22;4977130;28;96545;-27
2023/10/15 00:49:12;;;;;;;0.10;0.05;;;;;;;9.35;83.81;101890.84;4975849;28;96857;-27
2023/10/15 00:51:44;;;;;;;0.17;0.15;;;;;;;9.35;83.73;101892.69;4975805;28;98942;-29
2023/10/15 00:54:15;;;;;;;2.00;0.52;;;;;;;9.38;83.70;101897.09;4977249;28;97711;-29
2023/10/15 00:56:44;;;;;;;1.53;0.50;;;;;;;9.31;83.98;101889.22;4977421;28;96663;-29
2023/10/15 00:59:13;;;;;;;0.10;0.10;;;;;;;9.35;84.17;101889.97;4976210;28;96848;-28
2023/10/15 01:01:42;;;;;;;0.20;0.10;;;;;;;9.29;84.79;101890.22;4975588;28;100852;-28
2023/10/15 01:04:09;;;;;;;0.05;0.05;;;;;;;9.28;85.04;101899.28;4975610;28;100983;-28
2023/10/15 01:06:37;;;;;;;0.85;0.32;;;;;;;9.20;85.70;101888.78;4976624;28;96454;-28
2023/10/15 01:09:38;;;;;;;0.32;0.20;;;;;;;9.25;85.18;101903.00;4975713;28;96701;-28
2023/10/15 01:12:19;;;;;;;0.55;0.28;;;;;;;9.25;84.58;101894.00;4975411;28;98845;-28
2023/10/15 01:14:45;;;;;;;0.65;0.30;;;;;;;9.14;85.60;101884.47;4976407;28;99566;-27
2023/10/15 01:17:10;;;;;;;1.90;0.40;;;;;;;9.19;85.30;101889.69;4975547;28;96767;-29
2023/10/15 01:19:36;;;;;;;0.55;0.38;;;;;;;9.21;85.47;101906.75;4977220;28;96796;-29
2023/10/15 01:22:08;;;;;;;1.45;0.17;;;;;;;9.20;84.93;101925.72;4976724;28;98065;-28
2023/10/15 01:24:36;;;;;;;2.22;0.35;;;;;;;9.19;85.73;101918.56;4975607;28;100938;-28
2023/10/15 01:27:10;;;;;;;0.40;0.30;;;;;;;9.20;85.39;101915.81;4975538;28;96729;-28
2023/10/15 01:29:41;;;;;;;0.15;0.08;;;;;;;9.21;85.52;101904.03;4975370;28;96688;-28
2023/10/15 01:32:14;;;;;;;1.50;0.30;;;;;;;9.26;85.76;101914.69;4974499;28;99423;-29
2023/10/15 01:34:44;;;;;;;2.15;0.38;;;;;;;9.25;86.02;101931.84;4976265;28;99154;-28
2023/10/15 01:37:15;;;;;;;0.00;0.00;;;;;;;9.26;84.51;101928.19;4975394;28;96783;-28
2023/10/15 01:39:47;;;;;;;0.10;0.10;;;;;;;9.25;85.66;101962.47;4975443;28;96719;-28
2023/10/15 01:42:32;;;;;;;1.05;0.28;;;;;;;9.17;85.42;101948.34;4975972;28;99614;-28
2023/10/15 01:48:13;;;;;;;1.25;0.55;;;;;;;9.18;86.50;101949.25;4975277;28;97296;-28
2023/10/15 01:53:10;;;;;;;1.42;0.20;;;;;;;9.09;85.41;101927.00;4974231;28;97377;-28
2023/10/15 01:55:36;;;;;;;1.20;0.40;;;;;;;9.17;85.72;101926.72;4976467;28;97261;-29
2023/10/15 01:58:06;;;;;;;0.50;0.13;;;;;;;9.04;85.59;101914.63;4975727;28;96521;-28
2023/10/15 02:03:06;;;;;;;0.08;0.08;;;;;;;9.07;87.04;101933.41;4975841;28;97833;-27
2023/10/15 02:05:41;;;;;;;0.10;0.10;;;;;;;9.09;87.43;101942.34;4975927;28;98002;-28
2023/10/15 02:08:23;;;;;;;0.30;0.20;;;;;;;9.09;87.39;101926.13;4974949;28;96642;-29
2023/10/15 02:10:49;;;;;;;0.20;0.20;;;;;;;9.05;86.92;101917.25;4974659;28;96772;-28
2023/10/15 02:13:19;;;;;;;0.10;0.08;;;;;;;8.98;86.44;101898.63;4975898;28;97862;-28
2023/10/15 02:15:55;;;;;;;0.65;0.30;;;;;;;8.98;86.96;101914.84;4975990;28;99447;-28
2023/10/15 02:18:21;;;;;;;0.95;0.22;;;;;;;8.91;87.43;101919.59;4975922;28;96730;-28
2023/10/15 02:23:19;;;;;;;0.40;0.20;;;;;;;8.93;87.77;101920.41;4974467;28;97837;-28
2023/10/15 02:26:00;;;;;;;0.10;0.10;;;;;;;9.01;88.05;101930.94;4973930;28;101143;-28
2023/10/15 02:28:27;;;;;;;0.73;0.13;;;;;;;9.00;88.27;101930.06;4975675;28;96628;-28
2023/10/15 02:33:29;;;;;;;0.85;0.43;;;;;;;9.03;88.33;101983.13;4974436;28;97444;-29
2023/10/15 02:35:58;;;;;;;3.08;0.50;;;;;;;9.03;87.77;101997.50;4974034;28;100837;-28
2023/10/15 02:38:26;;;;;;;1.50;0.30;;;;;;;8.95;87.76;101974.41;4975612;28;96675;-27
2023/10/15 02:41:03;;;;;;;2.28;0.30;;;;;;;8.88;87.02;101962.94;4976111;28;96725;-29
2023/10/15 02:43:30;;;;;;;0.00;0.00;;;;;;;8.91;87.82;101961.03;4975423;28;97888;-29
2023/10/15 02:46:00;;;;;;;0.20;0.13;;;;;;;8.91;87.60;101961.03;4973244;28;101135;-28
2023/10/15 02:48:26;;;;;;;0.20;0.10;;;;;;;8.90;87.58;101959.25;4973556;28;96724;-28
2023/10/15 02:51:03;;;;;;;0.00;0.00;;;;;;;8.87;87.60;101945.88;4973906;28;96632;-28
2023/10/15 02:53:40;;;;;;;0.10;0.10;;;;;;;8.89;88.22;101957.50;4973908;28;100886;-28
2023/10/15 02:56:11;;;;;;;0.00;0.00;;;;;;;8.89;88.04;101954.78;4975478;28;97644;-28
2023/10/15 02:58:38;;;;;;;0.73;0.28;;;;;;;8.88;88.19;101958.41;4974315;28;96670;-29
2023/10/15 03:01:17;;;;;;;0.00;0.00;;;;;;;8.93;88.43;101974.47;4974127;28;96797;-28
2023/10/15 03:03:49;;;;;;;0.43;0.25;;;;;;;8.88;88.13;101968.34;4975038;28;99362;-28
2023/10/15 03:06:28;;;;;;;0.10;0.10;;;;;;;8.89;88.97;101975.50;4975336;28;100029;-28
2023/10/15 03:08:56;;;;;;;0.35;0.20;;;;;;;8.84;88.02;101983.81;4973980;28;96626;-28
2023/10/15 03:11:23;;;;;;;0.20;0.10;;;;;;;8.68;87.19;101979.88;4973716;28;96830;-29
2023/10/15 03:13:55;;;;;;;0.10;0.08;;;;;;;8.62;87.10;101982.78;4972798;28;101800;-28
2023/10/15 03:16:30;;;;;;;0.10;0.10;;;;;;;8.56;87.18;101983.91;4973612;28;100999;-28
2023/10/15 03:18:56;;;;;;;0.20;0.10;;;;;;;8.63;87.75;101979.16;4975160;28;96563;-29
2023/10/15 03:21:26;;;;;;;0.00;0.00;;;;;;;8.60;88.23;101977.44;4973932;28;96801;-28
2023/10/15 03:24:04;;;;;;;0.52;0.30;;;;;;;8.63;88.33;101968.38;4973321;28;100801;-28
2023/10/15 03:26:31;;;;;;;0.90;0.22;;;;;;;8.59;87.72;101937.88;4974733;28;97887;-28
2023/10/15 03:28:58;;;;;;;0.50;0.20;;;;;;;8.63;88.02;101917.06;4975182;28;96484;-28
2023/10/15 03:31:27;;;;;;;0.15;0.10;;;;;;;8.60;88.77;101933.34;4975292;28;96772;-28
2023/10/15 03:36:43;;;;;;;0.10;0.10;;;;;;;8.59;88.72;101916.25;4974336;28;98052;-28
2023/10/15 03:39:15;;;;;;;0.10;0.10;;;;;;;8.66;88.67;101925.03;4974357;28;96558;-28
2023/10/15 03:41:40;;;;;;;2.38;0.13;;;;;;;8.69;89.21;101931.19;4973655;28;96562;-28
2023/10/15 03:44:07;;;;;;;0.47;0.17;;;;;;;8.69;88.99;101928.50;4974525;28;97998;-28
2023/10/15 03:46:34;;;;;;;0.25;0.10;;;;;;;8.67;89.30;101930.34;4972624;28;101017;-28
2023/10/15 03:49:00;;;;;;;4.40;0.40;;;;;;;8.67;88.75;101933.06;4973431;28;96561;-28
2023/10/15 03:51:27;;;;;;;0.55;0.20;;;;;;;8.65;88.96;101937.66;4973049;28;97539;-28
2023/10/15 03:53:52;;;;;;;0.40;0.30;;;;;;;8.64;88.70;101941.28;4973080;28;100159;-29
2023/10/15 03:56:19;;;;;;;1.58;0.40;;;;;;;8.62;89.09;101950.38;4974662;28;99777;-28
2023/10/15 03:58:51;;;;;;;0.85;0.30;;;;;;;8.58;88.76;101944.22;4973314;28;96539;-28
2023/10/15 04:01:17;;;;;;;;;;;;;;;8.62;88.94;101950.38;4973834;28;96813;-28
2023/10/15 04:03:49;;;;;;;0.15;0.15;;;;;;;8.60;88.82;101942.31;4973769;28;97936;-28
2023/10/15 04:06:16;;;;;;;0.00;0.00;;;;;;;8.63;88.90;101955.75;4973047;28;98879;-28
2023/10/15 04:11:30;;;;;;;3.97;0.32;;;;;;;8.64;89.15;101954.78;4974770;28;96518;-28
2023/10/15 04:14:11;;;;;;;0.45;0.20;;;;;;;8.64;89.25;101959.31;4974143;28;99284;-28
2023/10/15 04:16:37;;;;;;;0.08;0.05;;;;;;;8.62;89.30;101955.78;4974244;28;99791;-28
2023/10/15 04:19:02;;;;;;;0.20;0.10;;;;;;;8.62;88.92;101956.66;4974774;28;96526;-28
2023/10/15 04:21:28;;;;;;;0.80;0.10;;;;;;;8.65;89.46;101971.88;4974647;28;96812;-28
2023/10/15 04:23:56;;;;;;;1.13;0.20;;;;;;;8.64;90.02;101972.81;4974264;28;97437;-28
2023/10/15 04:26:23;;;;;;;0.10;0.00;;;;;;;8.60;89.68;101973.84;4972693;28;101067;-29
2023/10/15 04:28:52;;;;;;;0.55;0.13;;;;;;;8.54;89.64;101977.66;4972527;28;96823;-28
2023/10/15 04:31:22;;;;;;;0.15;0.13;;;;;;;8.55;90.09;101992.91;4972929;28;96856;-30
2023/10/15 04:33:52;;;;;;;0.10;0.10;;;;;;;8.53;90.11;101983.09;4972526;28;100841;-28
2023/10/15 04:36:18;;;;;;;0.05;0.05;;;;;;;8.47;89.12;101987.78;4973964;28;99895;-28
2023/10/15 04:38:45;;;;;;;2.80;0.30;;;;;;;8.47;89.99;101979.69;4972799;28;96505;-27
2023/10/15 04:41:10;;;;;;;0.98;0.30;;;;;;;8.49;89.49;101990.44;4972791;28;96742;-28
2023/10/15 04:43:45;;;;;;;0.77;0.25;;;;;;;8.55;90.28;101986.63;4973683;28;97933;-28
2023/10/15 04:46:25;;;;;;;0.43;0.20;;;;;;;8.57;89.82;101984.78;4973490;28;99587;-28
2023/10/15 04:48:50;;;;;;;0.38;0.00;;;;;;;8.53;89.89;101986.69;4974146;28;96829;-28
2023/10/15 04:51:16;;;;;;;0.30;0.10;;;;;;;8.57;89.72;102004.56;4976666;28;96570;-28
2023/10/15 04:53:48;;;;;;;0.17;0.00;;;;;;;8.58;89.84;102013.53;4976618;28;97932;-28
2023/10/15 04:56:14;;;;;;;0.10;0.10;;;;;;;8.58;88.99;102019.84;4977366;28;98138;-29
2023/10/15 04:58:39;;;;;;;0.40;0.20;;;;;;;8.49;89.08;102015.63;4977207;28;96510;-28
2023/10/15 05:01:06;;;;;;;1.00;0.28;;;;;;;8.47;89.44;101987.78;4977351;28;96768;-27
2023/10/15 05:03:32;;;;;;;0.08;0.08;;;;;;;8.56;90.01;102004.63;4975379;28;101188;-28
2023/10/15 05:06:02;;;;;;;0.32;0.20;;;;;;;8.63;89.59;102001.66;4976711;28;99855;-28
2023/10/15 05:08:27;;;;;;;0.10;0.10;;;;;;;8.58;90.01;101986.53;4975587;28;96750;-28
2023/10/15 05:10:54;;;;;;;0.10;0.10;;;;;;;8.55;89.18;101987.50;4977637;28;96723;-28
2023/10/15 05:13:20;;;;;;;0.80;0.20;;;;;;;8.59;89.63;101988.31;4976978;28;97483;-28
2023/10/15 05:15:48;;;;;;;3.53;0.10;;;;;;;8.52;89.83;101981.34;4975342;28;101420;-27
2023/10/15 05:18:15;;;;;;;0.40;0.17;;;;;;;8.49;89.91;101988.63;4976351;28;96561;-28
2023/10/15 05:20:41;;;;;;;0.25;0.10;;;;;;;8.47;89.76;101995.00;4975474;28;97076;-28
2023/10/15 05:23:07;;;;;;;0.20;0.08;;;;;;;8.39;89.84;101983.53;4975142;28;101479;-29
2023/10/15 05:25:32;;;;;;;1.00;0.20;;;;;;;8.49;90.16;101990.44;4976683;28;97767;-28
2023/10/15 05:27:59;;;;;;;0.52;0.20;;;;;;;8.54;89.87;101993.00;4977060;28;96615;-28
2023/10/15 05:30:26;;;;;;;0.60;0.10;;;;;;;8.46;90.17;101977.03;4975332;28;96636;-28
2023/10/15 05:32:51;;;;;;;0.17;0.17;;;;;;;8.44;89.91;101979.81;4976820;28;97368;-28
2023/10/15 05:35:17;;;;;;;0.73;0.30;;;;;;;8.46;90.46;101977.94;4976794;28;97826;-28
2023/10/15 05:37:45;;;;;;;1.95;0.35;;;;;;;8.45;90.25;101975.28;4975235;28;96600;-29
2023/10/15 05:40:17;;;;;;;0.35;0.20;;;;;;;8.43;90.19;101982.53;4975363;28;96815;-28
2023/10/15 05:42:43;;;;;;;1.40;0.32;;;;;;;8.45;90.43;101991.47;4976029;28;97923;-28
2023/10/15 05:45:08;;;;;;;0.08;0.00;;;;;;;8.40;90.14;101991.63;4975461;28;99490;-28
2023/10/15 05:47:34;;;;;;;1.08;0.30;;;;;;;8.41;90.26;102001.47;4976645;28;96589;-28
2023/10/15 05:50:00;;;;;;;1.17;0.20;;;;;;;8.43;90.33;102015.81;4976124;28;96863;-29
2023/10/15 05:52:25;;;;;;;0.25;0.13;;;;;;;8.38;90.33;102015.06;4976210;28;97603;-29
2023/10/15 05:54:53;;;;;;;0.50;0.32;;;;;;;8.37;89.91;102025.94;4976176;28;97839;-28
2023/10/15 05:57:21;;;;;;;1.35;0.52;;;;;;;8.32;90.00;102033.28;4974844;28;96695;-28
2023/10/15 05:59:47;;;;;;;0.10;0.08;;;;;;;8.35;90.44;102039.47;4975276;28;96794;-29
2023/10/15 06:02:13;;;;;;;0.28;0.13;;;;;;;8.38;90.43;102043.88;4973351;28;100793;-28
2023/10/15 06:04:38;;;;;;;0.77;0.30;;;;;;;8.37;90.09;102025.94;4975661;28;99708;-29
2023/10/15 06:07:05;;;;;;;0.03;0.03;;;;;;;8.34;90.28;102016.09;4975865;28;96511;-28
2023/10/15 06:09:31;;;;;;;0.38;0.13;;;;;;;8.30;90.74;102025.25;4976285;28;96836;-28
2023/10/15 06:11:56;;;;;;;1.25;0.30;;;;;;;8.29;90.97;102045.06;4974411;28;101511;-28
2023/10/15 06:14:23;;;;;;;0.00;0.00;;;;;;;8.39;90.86;102061.84;4975850;28;98373;-28
2023/10/15 06:16:52;;;;;;;0.22;0.20;;;;;;;8.35;90.15;102038.59;4976020;28;96652;-29
2023/10/15 06:19:18;;;;;;;0.22;0.15;;;;;;;8.43;91.48;102067.13;4974473;28;96899;-28
2023/10/15 06:21:43;;;;;;;0.60;0.30;;;;;;;8.42;91.47;102062.66;4976003;28;97396;-28
2023/10/15 06:24:10;;;;;;;0.13;0.10;;;;;;;8.42;90.87;102064.50;4975757;28;99387;-28
2023/10/15 06:26:36;;;;;;;1.67;0.10;;;;;;;8.50;90.79;102068.69;4976059;28;96554;-28
2023/10/15 06:29:01;;;;;;;0.15;0.03;;;;;;;8.48;90.45;102054.34;4975921;28;96743;-28
2023/10/15 06:31:28;;;;;;;0.15;0.15;;;;;;;8.51;90.47;102058.78;4974855;28;99672;-28
2023/10/15 06:33:55;;;;;;;0.10;0.10;;;;;;;8.48;90.93;102051.66;4973708;28;101179;-28
2023/10/15 06:36:21;;;;;;;1.13;0.35;;;;;;;8.48;91.58;102045.38;4974343;28;96843;-28
2023/10/15 06:38:46;;;;;;;1.63;0.10;;;;;;;8.49;91.68;102048.03;4975929;28;96744;-28
2023/10/15 06:41:12;;;;;;;4.38;0.20;;;;;;;8.48;92.00;102051.66;4975588;28;97368;-28
2023/10/15 06:43:37;;;;;;;0.20;0.10;;;;;;;8.44;91.72;102047.31;4975087;28;97923;-28
2023/10/15 06:46:07;;;;;;;0.32;0.20;;;;;;;8.42;91.40;102048.28;4975388;28;96720;-29
2023/10/15 06:48:33;;;;;;;0.63;0.10;;;;;;;8.45;91.64;102062.56;4975425;28;96835;-28
2023/10/15 06:51:02;;;;;;;0.03;0.00;;;;;;;8.43;91.59;102063.53;4973829;28;101269;-28
2023/10/15 06:53:28;;;;;;;0.00;0.00;;;;;;;8.43;91.59;102064.41;4973992;28;100977;-28
2023/10/15 06:55:53;;;;;;;1.88;0.60;;;;;;;8.42;91.37;102062.66;4975205;28;96394;-28
2023/10/15 06:58:18;;;;;;;0.40;0.28;;;;;;;8.41;91.28;102057.31;4975433;28;96782;-28
2023/10/15 07:00:45;;;;;;;0.35;0.22;;;;;;;8.45;91.59;102075.19;4975522;28;97312;-29
2023/10/15 07:03:10;;;;;;;0.38;0.30;;;;;;;8.55;91.79;102081.16;4973735;28;101232;-28
2023/10/15 07:05:36;;;;;;;0.35;0.20;;;;;;;8.61;91.50;102087.25;4975620;28;96466;-29
2023/10/15 07:08:02;;;;;;;0.20;0.20;;;;;;;8.64;91.27;102080.84;4975467;28;96552;-28
2023/10/15 07:10:27;;;;;;;0.00;0.00;;;;;;;8.65;92.00;102097.03;4973662;28;100335;-28
2023/10/15 07:12:54;;;;;;;0.10;0.10;;;;;;;8.65;92.13;102090.72;4974662;28;98480;-28
2023/10/15 07:15:20;;;;;;;0.13;0.08;;;;;;;8.63;92.74;102092.59;4973724;28;96546;-29
2023/10/15 07:17:49;;;;;;;1.10;0.30;;;;;;;8.71;92.19;102110.31;4973884;28;96925;-28
2023/10/15 07:20:14;;;;;;;0.20;0.10;;;;;;;8.70;91.66;102113.94;4974323;28;99540;-28
2023/10/15 07:22:48;;;;;;;0.82;0.30;;;;;;;8.79;91.68;102136.19;4974988;28;97823;-29
2023/10/15 07:25:16;;;;;;;0.77;0.38;;;;;;;8.78;91.24;102132.59;4975228;28;96528;-28
2023/10/15 07:27:45;;;;;;;1.60;0.38;;;;;;;8.73;91.65;102145.38;4973749;28;96843;-28
2023/10/15 07:30:12;;;;;;;0.35;0.20;;;;;;;8.75;92.21;102137.19;4974365;28;98014;-29
2023/10/15 07:32:38;;;;;;;1.80;0.50;;;;;;;8.75;92.29;102142.59;4973314;28;101531;-28
2023/10/15 07:35:06;;;;;;;0.05;0.03;;;;;;;8.77;91.83;102141.66;4973750;28;96470;-28
2023/10/15 07:37:31;;;;;;;1.08;0.47;;;;;;;8.79;92.08;102147.84;4974086;28;96787;-29
2023/10/15 07:39:57;;;;;;;4.05;0.47;;;;;;;8.78;91.65;102148.81;4974793;28;98076;-28
2023/10/15 07:42:23;;;;;;;0.28;0.10;;;;;;;8.81;92.23;102158.63;4974743;28;97917;-31
2023/10/15 07:44:48;;;;;;;1.25;0.15;;;;;;;8.78;92.05;102156.03;4972113;28;96800;-28
2023/10/15 07:47:15;;;;;;;2.92;0.35;;;;;;;8.83;90.19;102165.75;4973396;28;96760;-28
2023/10/15 07:49:40;;;;;;;0.20;0.10;;;;;;;8.83;90.62;102165.75;4973384;28;101043;-28
2023/10/15 07:52:05;;;;;;;0.32;0.10;;;;;;;8.82;88.98;102150.47;4974567;28;97827;-28
2023/10/15 07:54:31;;;;;;;1.52;0.22;;;;;;;8.89;89.00;102157.44;4973468;28;96950;-28
2023/10/15 07:56:58;;;;;;;0.15;0.10;;;;;;;9.00;89.03;102153.50;4974977;28;96788;-28
2023/10/15 07:59:24;;;;;;;0.75;0.17;;;;;;;9.20;88.63;102169.94;4974490;28;97972;-29
2023/10/15 08:01:50;;;;;;;2.15;0.60;;;;;;;9.26;88.69;102174.22;4974773;28;97396;-28
2023/10/15 08:04:16;;;;;;;1.08;0.30;;;;;;;9.19;87.49;102173.53;4974755;28;96473;-28
2023/10/15 08:06:42;;;;;;;0.17;0.17;;;;;;;9.18;87.41;102177.19;4974509;28;96795;-29
2023/10/15 08:09:10;;;;;;;1.33;0.32;;;;;;;9.24;87.82;102185.06;4973972;28;97839;-28
2023/10/15 08:11:35;;;;;;;0.30;0.20;;;;;;;9.27;87.22;102187.69;4974228;28;97946;-28
2023/10/15 08:14:00;;;;;;;0.52;0.22;;;;;;;9.21;87.17;102190.59;4974769;28;96464;-30
2023/10/15 08:16:26;;;;;;;4.30;0.80;;;;;;;9.18;87.42;102198.81;4973392;28;96833;-29
2023/10/15 08:18:51;;;;;;;0.10;0.10;;;;;;;9.13;86.83;102203.50;4974316;28;97921;-27
2023/10/15 08:21:17;;;;;;;3.75;0.30;;;;;;;9.04;87.56;102193.00;4974044;28;99182;-28
2023/10/15 08:23:42;;;;;;;0.52;0.10;;;;;;;9.08;87.51;102202.75;4974287;28;96561;-28
2023/10/15 08:26:08;;;;;;;0.28;0.10;;;;;;;9.10;87.69;102206.28;4975819;28;96789;-29
2023/10/15 08:28:33;;;;;;;1.17;0.32;;;;;;;9.08;87.73;102200.03;4977625;28;97443;-28
2023/10/15 08:30:59;;;;;;;0.70;0.20;;;;;;;9.14;88.03;102202.56;4977208;28;98688;-28
2023/10/15 08:33:25;;;;;;;2.38;0.32;;;;;;;9.15;88.39;102196.19;4975919;28;96500;-28
2023/10/15 08:35:50;;;;;;;1.33;0.28;;;;;;;9.23;88.91;102207.66;4977512;28;96800;-28
2023/10/15 08:38:16;;;;;;;0.73;0.32;;;;;;;9.23;88.19;102226.59;4977304;28;99311;-28
2023/10/15 08:40:45;;;;;;;1.30;0.30;;;;;;;9.26;88.39;102267.03;4977084;28;99389;-29
2023/10/15 08:43:23;;;;;;;4.35;0.75;;;;;;;9.20;88.71;102260.94;4976207;28;96698;-28
2023/10/15 08:45:49;;;;;;;1.27;0.17;;;;;;;9.19;89.42;102264.59;4975742;28;96971;-28
2023/10/15 08:48:17;;;;;;;0.50;0.28;;;;;;;9.12;89.58;102255.78;4977026;28;97807;-28
2023/10/15 08:50:45;;;;;;;0.88;0.20;;;;;;;9.06;89.18;102227.16;4976026;28;101179;-28
2023/10/15 08:53:13;;;;;;;3.42;0.13;;;;;;;9.07;88.59;102242.41;4976247;28;96606;-28
2023/10/15 08:55:41;;;;;;;0.45;0.08;;;;;;;9.09;89.80;102254.06;4975990;28;96794;-28
2023/10/15 08:58:09;;;;;;;0.40;0.15;;;;;;;9.10;90.01;102255.81;4976502;28;98001;-28
2023/10/15 09:00:36;;;;;;;0.63;0.17;;;;;;;9.11;90.17;102260.31;4975662;28;100785;-28
2023/10/15 09:03:02;;;;;;;0.30;0.13;;;;;;;9.16;90.00;102253.88;4975853;28;97095;-28
2023/10/15 09:05:37;;;;;;;2.92;0.22;;;;;;;9.16;89.90;102256.59;4977461;28;96735;-28
2023/10/15 09:08:12;;;;;;;0.35;0.10;;;;;;;9.15;90.31;102263.78;4975666;28;100709;-28
2023/10/15 09:10:42;;;;;;;0.32;0.20;;;;;;;9.20;90.34;102271.75;4975665;28;101013;-28
2023/10/15 09:13:14;;;;;;;0.65;0.32;;;;;;;9.18;90.42;102255.59;4977274;28;96473;-28
2023/10/15 09:15:43;;;;;;;;;;;;;;;9.22;90.03;102250.94;4976542;28;96693;-28
2023/10/15 09:18:15;;;;;;;0.00;0.00;;;;;;;9.16;90.08;102249.34;4975466;28;99617;-29
2023/10/15 09:20:43;;;;;;;2.53;0.13;;;;;;;9.14;90.52;102262.91;4975245;28;101151;-28
2023/10/15 09:23:09;;;;;;;0.20;0.15;;;;;;;9.09;90.32;102270.28;4974954;28;96515;-28
2023/10/15 09:25:36;;;;;;;4.90;0.40;;;;;;;9.15;90.63;102285.41;4974899;28;96805;-29
2023/10/15 09:28:01;;;;;;;0.15;0.10;;;;;;;9.09;90.42;102280.22;4975763;28;99794;-29
2023/10/15 09:30:32;;;;;;;0.45;0.10;;;;;;;9.08;90.28;102305.47;4973873;28;101214;-28
2023/10/15 09:32:57;;;;;;;1.27;0.28;;;;;;;9.09;90.17;102313.53;4976869;28;96780;-28
2023/10/15 09:35:24;;;;;;;0.15;0.08;;;;;;;8.98;90.43;102301.28;4976710;28;96833;-28
2023/10/15 09:37:50;;;;;;;7.70;0.60;;;;;;;8.97;89.88;102321.16;4975075;28;99239;-28
2023/10/15 09:40:19;;;;;;;2.42;0.30;;;;;;;8.98;90.65;102337.31;4975254;28;100894;-28
2023/10/15 09:42:49;;;;;;;0.98;0.35;;;;;;;8.93;90.13;102317.66;4975135;28;96629;-29
2023/10/15 09:45:23;;;;;;;0.10;0.05;;;;;;;8.92;90.47;102332.09;4975890;28;96776;-28
2023/10/15 09:47:52;;;;;;;3.70;0.17;;;;;;;8.80;88.65;102319.84;4975554;28;99569;-28
2023/10/15 09:50:25;;;;;;;0.45;0.10;;;;;;;8.91;89.44;102331.22;4974713;28;101064;-28
2023/10/15 09:52:58;;;;;;;1.23;0.28;;;;;;;8.97;89.64;102323.84;4975006;28;96646;-28
2023/10/15 09:55:27;;;;;;;0.13;0.13;;;;;;;9.02;89.70;102317.38;4974958;28;96768;-29
2023/10/15 09:57:58;;;;;;;0.03;0.03;;;;;;;9.35;88.80;102314.53;4974653;28;100868;-28
2023/10/15 10:03:37;;;;;;;1.45;0.80;;;;;;;10.38;87.00;102319.06;4976842;28;96490;-28
2023/10/15 10:06:22;;;;;;;2.00;1.27;;;;;;;10.90;85.25;102324.34;4976601;28;96697;-28
2023/10/15 10:09:21;;;;;;;2.33;1.40;;;;;;;11.22;83.62;102315.78;4974379;28;101037;-30
2023/10/15 10:12:13;;;;;;;1.40;0.80;;;;;;;11.55;82.90;102322.59;4974578;28;100580;-28
2023/10/15 10:14:39;;;;;;;;;;;;;;;11.84;81.06;102315.94;4974577;28;96868;-29
2023/10/15 10:17:05;;;;;;;0.63;0.27;;;;;;;12.01;78.89;102310.69;4976430;28;96789;-28
2023/10/15 10:19:31;;;;;;;0.68;0.22;;;;;;;12.25;78.87;102322.31;4975850;28;97541;-28
2023/10/15 10:21:58;;;;;;;0.90;0.38;;;;;;;12.26;77.59;102334.91;4974307;28;101062;-29
2023/10/15 10:24:24;;;;;;;0.70;0.22;;;;;;;12.02;78.89;102327.88;4974655;28;96650;-29
2023/10/15 10:26:56;;;;;;;0.85;0.30;;;;;;;11.70;79.79;102330.09;4974487;28;96601;-28
2023/10/15 10:29:30;;;;;;;2.95;0.25;;;;;;;11.83;81.48;102335.88;4975175;28;99874;-28
2023/10/15 10:31:56;;;;;;;1.58;0.50;;;;;;;12.13;81.29;102332.81;4974405;28;100960;-29
2023/10/15 10:34:29;;;;;;;0.68;0.30;;;;;;;12.49;80.03;102330.28;4975814;28;96493;-28
2023/10/15 10:36:55;;;;;;;1.85;0.60;;;;;;;12.86;79.21;102339.44;4974418;28;96996;-28
2023/10/15 10:39:22;;;;;;;2.13;0.40;;;;;;;13.10;78.37;102326.50;4974761;28;98710;-28
2023/10/15 10:41:58;;;;;;;0.43;0.40;;;;;;;13.19;77.73;102328.78;4974050;28;100887;-28
2023/10/15 10:44:23;;;;;;;0.68;0.25;;;;;;;12.96;76.42;102328.03;4975651;28;96619;-29
2023/10/15 10:46:52;;;;;;;0.77;0.40;;;;;;;13.04;77.53;102316.81;4975146;28;96925;-28
2023/10/15 10:49:29;;;;;;;2.97;0.38;;;;;;;13.21;77.51;102332.31;4973091;28;101131;-28
2023/10/15 10:52:15;;;;;;;1.95;0.60;;;;;;;13.48;76.93;102332.81;4973793;28;101313;-28
2023/10/15 10:54:41;;;;;;;0.50;0.32;;;;;;;13.75;76.63;102336.00;4975841;28;96636;-28
2023/10/15 10:57:10;;;;;;;0.13;0.13;;;;;;;13.91;75.33;102332.47;4974643;28;96858;-28
2023/10/15 10:59:37;;;;;;;0.82;0.20;;;;;;;13.69;76.06;102329.97;4975219;28;97950;-28
2023/10/15 11:02:05;;;;;;;0.40;0.15;;;;;;;13.38;75.05;102343.28;4975081;28;98864;-28
2023/10/15 11:04:31;;;;;;;0.93;0.43;;;;;;;12.96;75.75;102352.50;4974980;28;96594;-28
2023/10/15 11:06:56;;;;;;;0.75;0.20;;;;;;;13.00;77.11;102355.13;4975285;28;96830;-28
2023/10/15 11:09:25;;;;;;;3.58;0.63;;;;;;;12.90;76.67;102351.94;4974973;28;99461;-30
2023/10/15 11:11:58;;;;;;;0.32;0.22;;;;;;;12.80;76.33;102354.22;4973458;28;101007;-28
2023/10/15 11:14:27;;;;;;;2.08;0.28;;;;;;;13.09;76.24;102358.28;4973895;28;96691;-28
2023/10/15 11:16:55;;;;;;;2.25;0.17;;;;;;;13.05;75.22;102350.34;4973833;28;96841;-28
2023/10/15 11:19:26;;;;;;;0.25;0.10;;;;;;;12.96;75.53;102348.91;4973550;28;101118;-28
2023/10/15 11:21:52;;;;;;;2.53;0.70;;;;;;;12.83;75.36;102345.03;4975487;28;97269;-28
2023/10/15 11:24:20;;;;;;;1.33;0.30;;;;;;;12.59;74.04;102347.94;4973810;28;96614;-28
2023/10/15 11:26:46;;;;;;;0.85;0.22;;;;;;;12.42;74.28;102353.22;4973679;28;96820;-29
2023/10/15 11:29:13;;;;;;;1.45;0.32;;;;;;;12.29;75.23;102355.63;4974217;28;99699;-28
2023/10/15 11:31:43;;;;;;;1.75;0.40;;;;;;;12.27;72.31;102366.56;4972968;28;100887;-28
2023/10/15 11:34:10;;;;;;;1.05;0.20;;;;;;;12.54;72.32;102350.00;4973695;28;96597;-28
2023/10/15 11:36:37;;;;;;;1.45;0.15;;;;;;;12.42;72.06;102346.00;4973644;28;96817;-29
2023/10/15 11:39:09;;;;;;;1.23;0.20;;;;;;;12.28;72.14;102353.88;4973353;28;101604;-28
2023/10/15 11:41:40;;;;;;;2.90;0.35;;;;;;;12.63;70.91;102348.66;4974514;28;99697;-28
2023/10/15 11:44:06;;;;;;;1.27;0.17;;;;;;;12.91;68.46;102342.81;4974798;28;96525;-28
2023/10/15 11:46:35;;;;;;;2.40;0.10;;;;;;;13.05;67.84;102351.22;4974465;28;96850;-28
2023/10/15 11:49:01;;;;;;;1.48;0.20;;;;;;;12.91;69.51;102348.25;4972877;28;100992;-28
2023/10/15 11:51:28;;;;;;;0.17;0.10;;;;;;;12.88;68.92;102359.28;4974309;28;98768;-28
2023/10/15 11:54:02;;;;;;;1.08;0.30;;;;;;;12.85;68.56;102351.28;4973079;28;96669;-28
2023/10/15 11:56:31;;;;;;;0.45;0.25;;;;;;;12.66;68.74;102353.97;4974698;28;96634;-29
2023/10/15 11:58:59;;;;;;;1.60;0.20;;;;;;;12.65;70.38;102357.63;4975233;28;97929;-28